Enterprise, West Virginia
Current Conditions -  °F | °C
As of 10:53 PM on Friday 28 Nov 2014 (Local Time) from KCKB Reporting Station
Overcast Overcast  
Wind Chill: 20°   Ceiling: 12000
Heat Index: 27°   Visibility: 10mi
Dew Point: 19°   Wind: 6mph
Humidity: 72%   Direction: 140°SE
Pressure: 30.2"   Gusts: NA
Location:  39.42°N, 80.28°W
Report Text: KCKB 290353Z 14005KT 10SM OVC120 M03/M07 A3020 RMK AO2 SLP236 T10281072
Loading
Personal Weather Stations






























Interactive Weather Map New forecast layout! Learn more

10-Day Weather Forecast

Advertisements
Track Severe Weather on mobile